sensor_id;sensor_type;location;lat;lon;timestamp;pressure;altitude;pressure_sealevel;temperature;humidity
74975;BME280;63530;50.836;19.138;2022-10-03T00:02:08;98206.47;;;24.00;56.07
74975;BME280;63530;50.836;19.138;2022-10-03T00:05:34;98211.47;;;23.98;56.20
74975;BME280;63530;50.836;19.138;2022-10-03T00:09:03;98212.97;;;24.04;55.87
74975;BME280;63530;50.836;19.138;2022-10-03T00:12:30;98204.69;;;24.04;56.44
74975;BME280;63530;50.836;19.138;2022-10-03T00:15:54;98203.72;;;24.00;56.10
74975;BME280;63530;50.836;19.138;2022-10-03T00:19:18;98198.84;;;23.97;56.07
74975;BME280;63530;50.836;19.138;2022-10-03T00:22:33;98205.50;;;23.96;55.91
74975;BME280;63530;50.836;19.138;2022-10-03T00:25:43;98200.31;;;23.95;55.75
74975;BME280;63530;50.836;19.138;2022-10-03T00:29:02;98203.06;;;23.95;56.55
74975;BME280;63530;50.836;19.138;2022-10-03T00:36:06;98201.59;;;23.97;56.00
74975;BME280;63530;50.836;19.138;2022-10-03T00:39:25;98194.31;;;23.93;55.86
74975;BME280;63530;50.836;19.138;2022-10-03T00:42:56;98207.44;;;23.96;56.02
74975;BME280;63530;50.836;19.138;2022-10-03T00:46:38;98194.00;;;23.94;56.12
74975;BME280;63530;50.836;19.138;2022-10-03T00:50:15;98193.50;;;23.92;56.84
74975;BME280;63530;50.836;19.138;2022-10-03T00:53:44;98201.28;;;23.90;56.99
74975;BME280;63530;50.836;19.138;2022-10-03T00:57:11;98190.91;;;23.96;55.03
74975;BME280;63530;50.836;19.138;2022-10-03T01:00:23;98189.94;;;24.00;55.30
74975;BME280;63530;50.836;19.138;2022-10-03T01:03:37;98177.28;;;23.99;55.76
74975;BME280;63530;50.836;19.138;2022-10-03T01:06:46;98184.59;;;23.95;55.55
74975;BME280;63530;50.836;19.138;2022-10-03T01:10:00;98189.63;;;23.93;55.23
74975;BME280;63530;50.836;19.138;2022-10-03T01:13:24;98184.88;;;23.85;55.86
74975;BME280;63530;50.836;19.138;2022-10-03T01:16:39;98181.81;;;23.87;56.32
74975;BME280;63530;50.836;19.138;2022-10-03T01:20:02;98182.13;;;23.85;56.32
74975;BME280;63530;50.836;19.138;2022-10-03T01:23:48;98174.53;;;23.91;56.08
74975;BME280;63530;50.836;19.138;2022-10-03T01:27:04;98169.50;;;23.84;55.86
74975;BME280;63530;50.836;19.138;2022-10-03T01:30:12;98175.50;;;23.86;56.01
74975;BME280;63530;50.836;19.138;2022-10-03T01:33:28;98172.72;;;23.86;55.99
74975;BME280;63530;50.836;19.138;2022-10-03T01:36:38;98171.59;;;23.87;56.01
74975;BME280;63530;50.836;19.138;2022-10-03T01:39:49;98174.34;;;23.87;55.77
74975;BME280;63530;50.836;19.138;2022-10-03T01:43:03;98179.38;;;23.85;56.17
74975;BME280;63530;50.836;19.138;2022-10-03T01:46:18;98183.44;;;23.88;55.92
74975;BME280;63530;50.836;19.138;2022-10-03T01:49:28;98175.03;;;23.93;56.12
74975;BME280;63530;50.836;19.138;2022-10-03T01:52:40;98183.59;;;23.91;55.55
74975;BME280;63530;50.836;19.138;2022-10-03T01:55:55;98179.56;;;23.89;55.96
74975;BME280;63530;50.836;19.138;2022-10-03T01:59:05;98177.75;;;23.84;55.89
74975;BME280;63530;50.836;19.138;2022-10-03T02:02:18;98187.97;;;23.84;55.88
74975;BME280;63530;50.836;19.138;2022-10-03T02:05:35;98195.91;;;23.85;56.05
74975;BME280;63530;50.836;19.138;2022-10-03T02:08:51;98186.81;;;23.85;56.21
74975;BME280;63530;50.836;19.138;2022-10-03T02:12:06;98186.50;;;23.86;55.91
74975;BME280;63530;50.836;19.138;2022-10-03T02:15:15;98187.00;;;23.88;55.69
74975;BME280;63530;50.836;19.138;2022-10-03T02:18:28;98185.38;;;23.87;56.04
74975;BME280;63530;50.836;19.138;2022-10-03T02:21:46;98190.41;;;23.85;55.75
74975;BME280;63530;50.836;19.138;2022-10-03T02:24:59;98189.94;;;23.83;55.75
74975;BME280;63530;50.836;19.138;2022-10-03T02:32:09;98188.31;;;23.82;55.70
74975;BME280;63530;50.836;19.138;2022-10-03T02:35:49;98168.34;;;23.85;56.07
74975;BME280;63530;50.836;19.138;2022-10-03T02:39:16;98169.84;;;23.83;56.02
74975;BME280;63530;50.836;19.138;2022-10-03T02:47:33;98186.19;;;23.79;56.06
74975;BME280;63530;50.836;19.138;2022-10-03T02:51:33;98190.88;;;23.78;56.10
74975;BME280;63530;50.836;19.138;2022-10-03T02:55:22;98194.44;;;23.79;55.90
74975;BME280;63530;50.836;19.138;2022-10-03T02:58:48;98182.31;;;23.80;56.21
74975;BME280;63530;50.836;19.138;2022-10-03T03:02:34;98189.44;;;23.81;55.72
74975;BME280;63530;50.836;19.138;2022-10-03T03:10:20;98184.56;;;23.78;56.01
74975;BME280;63530;50.836;19.138;2022-10-03T03:13:55;98177.59;;;23.80;55.32
74975;BME280;63530;50.836;19.138;2022-10-03T03:17:20;98180.03;;;23.82;55.57
74975;BME280;63530;50.836;19.138;2022-10-03T03:20:40;98172.91;;;23.81;55.46
74975;BME280;63530;50.836;19.138;2022-10-03T03:24:05;98179.22;;;23.82;55.31
74975;BME280;63530;50.836;19.138;2022-10-03T03:27:37;98172.59;;;23.83;55.34
74975;BME280;63530;50.836;19.138;2022-10-03T03:30:52;98172.59;;;23.83;55.54
74975;BME280;63530;50.836;19.138;2022-10-03T03:34:05;98155.41;;;23.77;54.86
74975;BME280;63530;50.836;19.138;2022-10-03T03:37:19;98165.59;;;23.76;56.21
74975;BME280;63530;50.836;19.138;2022-10-03T03:40:37;98165.09;;;23.74;55.69
74975;BME280;63530;50.836;19.138;2022-10-03T03:43:54;98163.66;;;23.77;55.51
74975;BME280;63530;50.836;19.138;2022-10-03T03:47:14;98160.91;;;23.77;55.55
74975;BME280;63530;50.836;19.138;2022-10-03T03:50:50;98143.41;;;23.82;54.79
74975;BME280;63530;50.836;19.138;2022-10-03T03:54:19;98161.41;;;23.79;55.27
74975;BME280;63530;50.836;19.138;2022-10-03T03:58:07;98176.78;;;23.80;55.45
74975;BME280;63530;50.836;19.138;2022-10-03T04:01:31;98140.81;;;23.76;55.04
74975;BME280;63530;50.836;19.138;2022-10-03T04:04:58;98171.44;;;23.75;55.32
74975;BME280;63530;50.836;19.138;2022-10-03T04:08:25;98163.16;;;23.75;55.45
74975;BME280;63530;50.836;19.138;2022-10-03T04:11:52;98177.25;;;23.73;55.53
74975;BME280;63530;50.836;19.138;2022-10-03T04:15:26;98170.94;;;23.73;55.88
74975;BME280;63530;50.836;19.138;2022-10-03T04:18:47;98174.50;;;23.73;55.37
74975;BME280;63530;50.836;19.138;2022-10-03T04:22:11;98165.09;;;23.74;55.30
74975;BME280;63530;50.836;19.138;2022-10-03T04:25:38;98163.47;;;23.73;55.64
74975;BME280;63530;50.836;19.138;2022-10-03T04:29:05;98164.97;;;23.79;55.21
74975;BME280;63530;50.836;19.138;2022-10-03T04:32:34;98171.91;;;23.77;55.15
74975;BME280;63530;50.836;19.138;2022-10-03T04:39:45;98173.38;;;23.74;54.91
74975;BME280;63530;50.836;19.138;2022-10-03T04:43:02;98172.56;;;23.74;55.33
74975;BME280;63530;50.836;19.138;2022-10-03T04:46:18;98169.31;;;23.72;55.11
74975;BME280;63530;50.836;19.138;2022-10-03T04:49:35;98173.19;;;23.71;55.29
74975;BME280;63530;50.836;19.138;2022-10-03T04:52:43;98183.41;;;23.70;55.21
74975;BME280;63530;50.836;19.138;2022-10-03T04:56:10;98183.41;;;23.70;55.04
74975;BME280;63530;50.836;19.138;2022-10-03T04:59:33;98168.50;;;23.71;55.10
74975;BME280;63530;50.836;19.138;2022-10-03T05:02:45;98163.34;;;23.70;55.25
74975;BME280;63530;50.836;19.138;2022-10-03T05:05:58;98168.84;;;23.70;55.03
74975;BME280;63530;50.836;19.138;2022-10-03T05:09:15;98165.28;;;23.69;55.02
74975;BME280;63530;50.836;19.138;2022-10-03T05:12:32;98170.78;;;23.69;54.70
74975;BME280;63530;50.836;19.138;2022-10-03T05:15:49;98176.28;;;23.69;54.64
74975;BME280;63530;50.836;19.138;2022-10-03T05:19:09;98183.41;;;23.70;54.77
74975;BME280;63530;50.836;19.138;2022-10-03T05:22:39;98188.13;;;23.70;54.80
74975;BME280;63530;50.836;19.138;2022-10-03T05:25:53;98181.00;;;23.69;54.89
74975;BME280;63530;50.836;19.138;2022-10-03T05:29:26;98183.06;;;23.72;54.48
74975;BME280;63530;50.836;19.138;2022-10-03T05:32:39;98183.75;;;23.69;54.46
74975;BME280;63530;50.836;19.138;2022-10-03T05:35:58;98175.47;;;23.69;54.63
74975;BME280;63530;50.836;19.138;2022-10-03T05:39:25;98184.88;;;23.68;54.72
74975;BME280;63530;50.836;19.138;2022-10-03T05:42:36;98188.75;;;23.67;54.38
74975;BME280;63530;50.836;19.138;2022-10-03T05:45:53;98182.13;;;23.68;54.47
74975;BME280;63530;50.836;19.138;2022-10-03T05:49:16;98186.50;;;23.69;54.42
74975;BME280;63530;50.836;19.138;2022-10-03T05:56:25;98187.13;;;23.66;54.33
74975;BME280;63530;50.836;19.138;2022-10-03T05:59:54;98182.44;;;23.66;54.10
74975;BME280;63530;50.836;19.138;2022-10-03T06:07:17;98201.06;;;23.69;54.54
74975;BME280;63530;50.836;19.138;2022-10-03T06:10:38;98206.09;;;23.67;54.10
74975;BME280;63530;50.836;19.138;2022-10-03T06:14:03;98190.38;;;23.68;54.46
74975;BME280;63530;50.836;19.138;2022-10-03T06:17:34;98196.22;;;23.66;54.37
74975;BME280;63530;50.836;19.138;2022-10-03T06:21:07;98185.50;;;23.65;54.48
74975;BME280;63530;50.836;19.138;2022-10-03T06:24:37;98205.28;;;23.67;54.64
74975;BME280;63530;50.836;19.138;2022-10-03T06:28:16;98198.31;;;23.69;54.28
74975;BME280;63530;50.836;19.138;2022-10-03T06:32:08;98208.53;;;23.69;54.32
74975;BME280;63530;50.836;19.138;2022-10-03T06:35:57;98217.91;;;23.68;54.19
74975;BME280;63530;50.836;19.138;2022-10-03T06:39:57;98220.66;;;23.68;54.24
74975;BME280;63530;50.836;19.138;2022-10-03T06:43:32;98216.13;;;23.72;53.97
74975;BME280;63530;50.836;19.138;2022-10-03T06:51:11;98222.31;;;23.69;53.84
74975;BME280;63530;50.836;19.138;2022-10-03T06:59:00;98217.25;;;23.71;53.90
74975;BME280;63530;50.836;19.138;2022-10-03T07:02:36;98233.16;;;23.74;53.53
74975;BME280;63530;50.836;19.138;2022-10-03T07:06:02;98220.38;;;23.78;53.51
74975;BME280;63530;50.836;19.138;2022-10-03T07:13:20;98245.28;;;23.73;53.66
74975;BME280;63530;50.836;19.138;2022-10-03T07:16:56;98238.03;;;23.77;53.74
74975;BME280;63530;50.836;19.138;2022-10-03T07:20:25;98251.50;;;23.87;54.06
74975;BME280;63530;50.836;19.138;2022-10-03T07:23:55;98256.69;;;23.89;53.92
74975;BME280;63530;50.836;19.138;2022-10-03T07:27:25;98257.47;;;23.80;54.69
74975;BME280;63530;50.836;19.138;2022-10-03T07:30:52;98250.84;;;23.82;55.35
74975;BME280;63530;50.836;19.138;2022-10-03T07:34:29;98255.09;;;23.96;54.83
74975;BME280;63530;50.836;19.138;2022-10-03T07:38:09;98265.31;;;24.04;54.62
74975;BME280;63530;50.836;19.138;2022-10-03T07:42:07;98264.00;;;23.93;54.60
74975;BME280;63530;50.836;19.138;2022-10-03T07:45:46;98258.66;;;23.97;54.65
74975;BME280;63530;50.836;19.138;2022-10-03T07:49:23;98268.38;;;23.94;54.92
74975;BME280;63530;50.836;19.138;2022-10-03T07:52:58;98250.41;;;23.97;54.49
74975;BME280;63530;50.836;19.138;2022-10-03T07:56:33;98246.03;;;23.96;54.80
74975;BME280;63530;50.836;19.138;2022-10-03T08:00:14;98238.72;;;24.00;55.39
74975;BME280;63530;50.836;19.138;2022-10-03T08:03:54;98229.81;;;24.03;54.84
74975;BME280;63530;50.836;19.138;2022-10-03T08:07:20;98226.91;;;24.08;54.99
74975;BME280;63530;50.836;19.138;2022-10-03T08:11:05;98232.56;;;24.11;54.73
74975;BME280;63530;50.836;19.138;2022-10-03T08:14:18;98226.09;;;24.07;55.00
74975;BME280;63530;50.836;19.138;2022-10-03T08:21:50;98244.75;;;24.19;54.66
74975;BME280;63530;50.836;19.138;2022-10-03T08:25:12;98240.72;;;24.25;54.75
74975;BME280;63530;50.836;19.138;2022-10-03T08:28:42;98255.97;;;24.31;54.54
74975;BME280;63530;50.836;19.138;2022-10-03T08:32:35;98251.44;;;24.27;54.37
74975;BME280;63530;50.836;19.138;2022-10-03T08:40:14;98237.16;;;24.25;54.39
74975;BME280;63530;50.836;19.138;2022-10-03T08:43:58;98249.81;;;24.34;54.87
74975;BME280;63530;50.836;19.138;2022-10-03T08:51:58;98227.59;;;24.39;54.28
74975;BME280;63530;50.836;19.138;2022-10-03T08:55:30;98253.53;;;24.30;54.05
74975;BME280;63530;50.836;19.138;2022-10-03T08:59:09;98253.53;;;24.30;54.66
74975;BME280;63530;50.836;19.138;2022-10-03T09:06:56;98254.19;;;24.44;54.64
74975;BME280;63530;50.836;19.138;2022-10-03T09:18:29;98252.56;;;24.51;54.38
74975;BME280;63530;50.836;19.138;2022-10-03T09:25:38;98253.22;;;24.74;53.57
74975;BME280;63530;50.836;19.138;2022-10-03T09:29:23;98285.84;;;24.55;48.41
74975;BME280;63530;50.836;19.138;2022-10-03T09:33:14;98262.78;;;24.85;51.88
74975;BME280;63530;50.836;19.138;2022-10-03T09:36:47;98258.91;;;24.86;51.92
74975;BME280;63530;50.836;19.138;2022-10-03T09:40:42;98272.84;;;24.81;52.58
74975;BME280;63530;50.836;19.138;2022-10-03T09:44:21;98289.72;;;24.54;53.10
74975;BME280;63530;50.836;19.138;2022-10-03T09:48:13;98282.44;;;24.49;54.77
74975;BME280;63530;50.836;19.138;2022-10-03T09:51:32;98285.19;;;24.41;55.58
74975;BME280;63530;50.836;19.138;2022-10-03T09:55:24;98295.53;;;24.27;55.24
74975;BME280;63530;50.836;19.138;2022-10-03T09:58:51;98292.47;;;24.37;53.85
74975;BME280;63530;50.836;19.138;2022-10-03T10:02:35;98286.31;;;24.40;53.16
74975;BME280;63530;50.836;19.138;2022-10-03T10:06:04;98281.78;;;24.44;51.89
74975;BME280;63530;50.836;19.138;2022-10-03T10:09:38;98288.28;;;24.48;50.46
74975;BME280;63530;50.836;19.138;2022-10-03T10:25:06;98290.81;;;24.19;48.13
74975;BME280;63530;50.836;19.138;2022-10-03T10:28:55;98282.19;;;24.11;47.48
74975;BME280;63530;50.836;19.138;2022-10-03T10:40:42;98290.88;;;24.36;49.34
74975;BME280;63530;50.836;19.138;2022-10-03T10:44:25;98290.03;;;24.27;49.40
74975;BME280;63530;50.836;19.138;2022-10-03T10:56:08;98305.09;;;24.38;49.88
74975;BME280;63530;50.836;19.138;2022-10-03T11:00:09;98296.19;;;24.41;49.99
74975;BME280;63530;50.836;19.138;2022-10-03T11:11:54;98300.59;;;24.42;50.15
74975;BME280;63530;50.836;19.138;2022-10-03T11:15:39;98284.03;;;24.33;49.98
74975;BME280;63530;50.836;19.138;2022-10-03T11:19:33;98310.81;;;24.33;49.49
74975;BME280;63530;50.836;19.138;2022-10-03T11:23:19;98323.72;;;24.24;49.05
74975;BME280;63530;50.836;19.138;2022-10-03T11:30:54;98319.00;;;24.15;49.14
74975;BME280;63530;50.836;19.138;2022-10-03T11:34:46;98326.66;;;24.27;48.48
74975;BME280;63530;50.836;19.138;2022-10-03T11:38:12;98325.34;;;24.25;48.46
74975;BME280;63530;50.836;19.138;2022-10-03T11:41:28;98335.53;;;24.15;48.89
74975;BME280;63530;50.836;19.138;2022-10-03T11:44:45;98337.16;;;24.16;49.25
74975;BME280;63530;50.836;19.138;2022-10-03T11:48:19;98337.69;;;24.27;49.01
74975;BME280;63530;50.836;19.138;2022-10-03T11:51:40;98337.69;;;24.27;49.79
74975;BME280;63530;50.836;19.138;2022-10-03T11:54:48;98332.69;;;24.29;49.06
74975;BME280;63530;50.836;19.138;2022-10-03T11:58:13;98342.03;;;24.20;49.88
74975;BME280;63530;50.836;19.138;2022-10-03T12:01:35;98344.19;;;24.23;49.67
74975;BME280;63530;50.836;19.138;2022-10-03T12:04:50;98346.41;;;24.21;48.92
74975;BME280;63530;50.836;19.138;2022-10-03T12:08:09;98335.72;;;24.19;49.07
74975;BME280;63530;50.836;19.138;2022-10-03T12:11:45;98339.28;;;24.20;49.06
74975;BME280;63530;50.836;19.138;2022-10-03T12:14:59;98342.16;;;24.14;48.78
74975;BME280;63530;50.836;19.138;2022-10-03T12:18:12;98341.69;;;24.12;48.50
74975;BME280;63530;50.836;19.138;2022-10-03T12:21:21;98339.59;;;24.09;48.28
74975;BME280;63530;50.836;19.138;2022-10-03T12:24:27;98348.97;;;24.08;47.85
74975;BME280;63530;50.836;19.138;2022-10-03T12:27:41;98337.97;;;24.08;48.15
74975;BME280;63530;50.836;19.138;2022-10-03T12:30:53;98346.53;;;24.07;47.80
74975;BME280;63530;50.836;19.138;2022-10-03T12:34:16;98347.16;;;24.04;47.71
74975;BME280;63530;50.836;19.138;2022-10-03T12:37:42;98339.22;;;24.02;47.65
74975;BME280;63530;50.836;19.138;2022-10-03T12:40:59;98343.09;;;24.01;47.06
74975;BME280;63530;50.836;19.138;2022-10-03T12:44:20;98347.31;;;23.99;47.18
74975;BME280;63530;50.836;19.138;2022-10-03T12:47:42;98347.63;;;23.97;47.03
74975;BME280;63530;50.836;19.138;2022-10-03T12:51:01;98355.41;;;23.95;46.43
74975;BME280;63530;50.836;19.138;2022-10-03T12:54:22;98343.28;;;23.96;46.62
74975;BME280;63530;50.836;19.138;2022-10-03T12:57:46;98346.50;;;23.98;46.38
74975;BME280;63530;50.836;19.138;2022-10-03T13:00:57;98339.34;;;23.97;46.42
74975;BME280;63530;50.836;19.138;2022-10-03T13:04:13;98345.53;;;24.03;46.42
74975;BME280;63530;50.836;19.138;2022-10-03T13:07:30;98348.28;;;23.94;47.24
74975;BME280;63530;50.836;19.138;2022-10-03T13:10:38;98364.84;;;24.11;46.30
74975;BME280;63530;50.836;19.138;2022-10-03T13:13:58;98362.59;;;24.13;46.53
74975;BME280;63530;50.836;19.138;2022-10-03T13:17:17;98355.31;;;24.09;46.41
74975;BME280;63530;50.836;19.138;2022-10-03T13:20:28;98367.13;;;24.09;45.79
74975;BME280;63530;50.836;19.138;2022-10-03T13:23:43;98375.88;;;24.11;45.96
74975;BME280;63530;50.836;19.138;2022-10-03T13:26:55;98377.34;;;24.09;46.05
74975;BME280;63530;50.836;19.138;2022-10-03T13:30:12;98371.50;;;24.10;46.11
74975;BME280;63530;50.836;19.138;2022-10-03T13:33:24;98378.00;;;24.14;45.92
74975;BME280;63530;50.836;19.138;2022-10-03T13:36:33;98373.81;;;24.17;45.89
74975;BME280;63530;50.836;19.138;2022-10-03T13:39:45;98372.50;;;24.14;45.93
74975;BME280;63530;50.836;19.138;2022-10-03T13:42:50;98375.94;;;24.20;45.62
74975;BME280;63530;50.836;19.138;2022-10-03T13:45:55;98371.84;;;24.17;45.44
74975;BME280;63530;50.836;19.138;2022-10-03T13:49:02;98370.88;;;24.13;45.12
74975;BME280;63530;50.836;19.138;2022-10-03T13:52:17;98369.09;;;24.09;45.08
74975;BME280;63530;50.836;19.138;2022-10-03T13:55:37;98382.88;;;24.09;45.07
74975;BME280;63530;50.836;19.138;2022-10-03T13:58:52;98397.91;;;24.11;44.92
74975;BME280;63530;50.836;19.138;2022-10-03T14:02:16;98387.81;;;23.98;45.04
74975;BME280;63530;50.836;19.138;2022-10-03T14:05:58;98398.22;;;24.01;45.55
74975;BME280;63530;50.836;19.138;2022-10-03T14:09:21;98400.16;;;24.01;45.45
74975;BME280;63530;50.836;19.138;2022-10-03T14:12:40;98390.72;;;23.93;45.71
74975;BME280;63530;50.836;19.138;2022-10-03T14:16:01;98391.38;;;23.90;46.44
74975;BME280;63530;50.836;19.138;2022-10-03T14:19:14;98403.88;;;23.96;46.23
74975;BME280;63530;50.836;19.138;2022-10-03T14:22:31;98404.19;;;23.95;46.50
74975;BME280;63530;50.836;19.138;2022-10-03T14:25:46;98415.84;;;23.92;46.58
74975;BME280;63530;50.836;19.138;2022-10-03T14:28:57;98407.91;;;23.90;46.88
74975;BME280;63530;50.836;19.138;2022-10-03T14:32:11;98414.72;;;23.93;46.73
74975;BME280;63530;50.836;19.138;2022-10-03T14:35:46;98416.50;;;23.97;46.83
74975;BME280;63530;50.836;19.138;2022-10-03T14:39:11;98418.19;;;24.07;45.65
74975;BME280;63530;50.836;19.138;2022-10-03T14:42:34;98411.94;;;24.24;45.16
74975;BME280;63530;50.836;19.138;2022-10-03T14:45:45;98403.50;;;24.20;44.84
74975;BME280;63530;50.836;19.138;2022-10-03T14:48:53;98412.44;;;24.26;44.60
74975;BME280;63530;50.836;19.138;2022-10-03T14:52:01;98411.75;;;24.20;45.15
74975;BME280;63530;50.836;19.138;2022-10-03T14:55:14;98421.47;;;24.17;45.02
74975;BME280;63530;50.836;19.138;2022-10-03T14:58:22;98424.41;;;24.21;44.53
74975;BME280;63530;50.836;19.138;2022-10-03T15:01:29;98428.94;;;24.17;44.87
74975;BME280;63530;50.836;19.138;2022-10-03T15:04:34;98434.88;;;24.10;44.79
74975;BME280;63530;50.836;19.138;2022-10-03T15:07:40;98430.03;;;24.07;45.27
74975;BME280;63530;50.836;19.138;2022-10-03T15:10:47;98439.72;;;24.05;45.68
74975;BME280;63530;50.836;19.138;2022-10-03T15:13:54;98455.41;;;23.96;45.90
74975;BME280;63530;50.836;19.138;2022-10-03T15:17:00;98453.13;;;23.98;45.88
74975;BME280;63530;50.836;19.138;2022-10-03T15:20:09;98441.97;;;23.94;46.49
74975;BME280;63530;50.836;19.138;2022-10-03T15:23:18;98448.22;;;23.86;45.96
74975;BME280;63530;50.836;19.138;2022-10-03T15:26:25;98450.16;;;23.86;46.94
74975;BME280;63530;50.836;19.138;2022-10-03T15:29:32;98456.97;;;23.88;47.25
74975;BME280;63530;50.836;19.138;2022-10-03T15:32:38;98452.91;;;23.86;46.98
74975;BME280;63530;50.836;19.138;2022-10-03T15:35:46;98459.00;;;23.96;47.00
74975;BME280;63530;50.836;19.138;2022-10-03T15:38:52;98457.84;;;23.97;46.67
74975;BME280;63530;50.836;19.138;2022-10-03T15:42:02;98453.22;;;23.84;46.18
74975;BME280;63530;50.836;19.138;2022-10-03T15:45:25;98452.66;;;23.96;46.99
74975;BME280;63530;50.836;19.138;2022-10-03T15:48:31;98462.06;;;23.95;47.81
74975;BME280;63530;50.836;19.138;2022-10-03T15:51:36;98467.19;;;23.88;48.38
74975;BME280;63530;50.836;19.138;2022-10-03T15:54:44;98460.25;;;23.90;48.37
74975;BME280;63530;50.836;19.138;2022-10-03T15:57:53;98464.75;;;23.86;48.80
74975;BME280;63530;50.836;19.138;2022-10-03T16:01:04;98464.25;;;23.84;48.65
74975;BME280;63530;50.836;19.138;2022-10-03T16:04:16;98476.72;;;23.82;48.80
74975;BME280;63530;50.836;19.138;2022-10-03T16:07:28;98479.53;;;23.90;48.74
74975;BME280;63530;50.836;19.138;2022-10-03T16:10:39;98489.53;;;23.86;48.95
74975;BME280;63530;50.836;19.138;2022-10-03T16:13:53;98489.72;;;23.90;49.16
74975;BME280;63530;50.836;19.138;2022-10-03T16:17:12;98492.78;;;23.88;49.07
74975;BME280;63530;50.836;19.138;2022-10-03T16:20:21;98492.28;;;23.86;49.43
74975;BME280;63530;50.836;19.138;2022-10-03T16:23:29;98495.03;;;23.86;49.70
74975;BME280;63530;50.836;19.138;2022-10-03T16:26:45;98507.69;;;23.87;49.85
74975;BME280;63530;50.836;19.138;2022-10-03T16:30:02;98497.13;;;23.80;49.90
74975;BME280;63530;50.836;19.138;2022-10-03T16:33:19;98498.94;;;23.85;50.12
74975;BME280;63530;50.836;19.138;2022-10-03T16:36:25;98501.56;;;23.90;50.19
74975;BME280;63530;50.836;19.138;2022-10-03T16:39:33;98494.31;;;23.94;49.76
74975;BME280;63530;50.836;19.138;2022-10-03T16:42:40;98490.59;;;23.99;49.87
74975;BME280;63530;50.836;19.138;2022-10-03T16:45:47;98486.38;;;24.01;50.81
74975;BME280;63530;50.836;19.138;2022-10-03T16:48:54;98493.03;;;24.00;51.05
74975;BME280;63530;50.836;19.138;2022-10-03T16:52:19;98498.69;;;23.95;51.28
74975;BME280;63530;50.836;19.138;2022-10-03T16:55:27;98499.16;;;23.97;51.82
74975;BME280;63530;50.836;19.138;2022-10-03T16:58:37;98499.53;;;24.04;51.61
74975;BME280;63530;50.836;19.138;2022-10-03T17:01:48;98502.50;;;24.08;51.59
74975;BME280;63530;50.836;19.138;2022-10-03T17:04:54;98489.03;;;24.06;51.77
74975;BME280;63530;50.836;19.138;2022-10-03T17:08:03;98489.66;;;24.03;51.96
74975;BME280;63530;50.836;19.138;2022-10-03T17:11:31;98493.53;;;24.02;51.25
74975;BME280;63530;50.836;19.138;2022-10-03T17:14:39;98494.16;;;23.99;51.99
74975;BME280;63530;50.836;19.138;2022-10-03T17:17:49;98502.94;;;24.01;51.50
74975;BME280;63530;50.836;19.138;2022-10-03T17:21:02;98508.44;;;24.01;51.65
74975;BME280;63530;50.836;19.138;2022-10-03T17:24:12;98508.94;;;24.03;51.10
74975;BME280;63530;50.836;19.138;2022-10-03T17:27:23;98518.44;;;23.97;51.87
74975;BME280;63530;50.836;19.138;2022-10-03T17:30:33;98518.34;;;23.80;45.33
74975;BME280;63530;50.836;19.138;2022-10-03T17:33:43;98507.06;;;23.90;49.36
74975;BME280;63530;50.836;19.138;2022-10-03T17:37:01;98514.56;;;23.98;50.29
74975;BME280;63530;50.836;19.138;2022-10-03T17:40:19;98522.47;;;23.91;50.39
74975;BME280;63530;50.836;19.138;2022-10-03T17:43:30;98524.63;;;23.94;51.32
74975;BME280;63530;50.836;19.138;2022-10-03T17:46:39;98534.50;;;23.95;51.66
74975;BME280;63530;50.836;19.138;2022-10-03T17:49:52;98535.63;;;23.94;52.05
74975;BME280;63530;50.836;19.138;2022-10-03T17:53:01;98534.81;;;23.94;52.03
74975;BME280;63530;50.836;19.138;2022-10-03T17:56:08;98534.00;;;23.93;52.39
74975;BME280;63530;50.836;19.138;2022-10-03T17:59:18;98544.22;;;23.93;52.67
74975;BME280;63530;50.836;19.138;2022-10-03T18:02:30;98544.22;;;23.93;52.33
74975;BME280;63530;50.836;19.138;2022-10-03T18:05:42;98538.69;;;23.93;52.46
74975;BME280;63530;50.836;19.138;2022-10-03T18:08:49;98537.06;;;23.92;52.62
74975;BME280;63530;50.836;19.138;2022-10-03T18:12:01;98543.41;;;23.92;52.73
74975;BME280;63530;50.836;19.138;2022-10-03T18:19:06;98537.88;;;23.92;53.11
74975;BME280;63530;50.836;19.138;2022-10-03T18:22:19;98537.88;;;23.92;52.58
74975;BME280;63530;50.836;19.138;2022-10-03T18:25:28;98542.59;;;23.92;52.39
74975;BME280;63530;50.836;19.138;2022-10-03T18:29:18;98542.06;;;23.90;52.79
74975;BME280;63530;50.836;19.138;2022-10-03T18:32:27;98551.66;;;23.92;52.81
74975;BME280;63530;50.836;19.138;2022-10-03T18:35:34;98554.41;;;23.92;52.68
74975;BME280;63530;50.836;19.138;2022-10-03T18:38:42;98553.59;;;23.92;52.74
74975;BME280;63530;50.836;19.138;2022-10-03T18:41:48;98536.06;;;23.88;52.82
74975;BME280;63530;50.836;19.138;2022-10-03T18:44:54;98553.59;;;23.92;52.62
74975;BME280;63530;50.836;19.138;2022-10-03T18:48:06;98553.78;;;23.95;52.06
74975;BME280;63530;50.836;19.138;2022-10-03T18:51:16;98551.03;;;23.95;52.34
74975;BME280;63530;50.836;19.138;2022-10-03T18:54:34;98556.56;;;23.95;52.09
74975;BME280;63530;50.836;19.138;2022-10-03T18:57:48;98558.66;;;23.98;51.83
74975;BME280;63530;50.836;19.138;2022-10-03T19:01:00;98553.78;;;23.95;52.50
74975;BME280;63530;50.836;19.138;2022-10-03T19:04:07;98568.69;;;23.94;52.61
74975;BME280;63530;50.836;19.138;2022-10-03T19:07:18;98558.00;;;23.93;53.29
74975;BME280;63530;50.836;19.138;2022-10-03T19:10:34;98566.44;;;23.96;52.92
74975;BME280;63530;50.836;19.138;2022-10-03T19:13:42;98562.72;;;24.01;53.14
74975;BME280;63530;50.836;19.138;2022-10-03T19:17:11;98572.94;;;24.00;53.31
74975;BME280;63530;50.836;19.138;2022-10-03T19:20:24;98571.31;;;23.99;53.68
74975;BME280;63530;50.836;19.138;2022-10-03T19:23:34;98574.88;;;24.00;53.55
74975;BME280;63530;50.836;19.138;2022-10-03T19:26:44;98574.06;;;23.99;53.75